Time;durP1;ratioP1;P1;durP2;ratioP2;P2;SDS_P1;SDS_P2;PMS_P1;PMS_P2;Temp;Humidity;BMP_temperature;BMP_pressure;BME280_temperature;BME280_humidity;BME280_pressure;Samples;Min_cycle;Max_cycle;Signal;HPM_P1;HPM_P2
2022/11/06 00:00:55;;;;;;;2.97;1.88;;;;;;;11.39;82.57;100798.41;5003739;28;20048;-70
2022/11/06 00:03:21;;;;;;;2.53;1.65;;;;;;;11.44;82.71;100788.09;4996387;28;20038;-71
2022/11/06 00:08:36;;;;;;;2.15;1.50;;;;;;;11.38;82.65;100792.22;4999248;28;20030;-71
2022/11/06 00:11:09;;;;;;;4.30;1.33;;;;;;;11.35;82.32;100776.78;5000580;28;20034;-71
2022/11/06 00:13:34;;;;;;;2.53;1.80;;;;;;;11.38;82.52;100776.06;5004669;28;20049;-72
2022/11/06 00:16:05;;;;;;;2.50;1.42;;;;;;;11.36;82.17;100767.53;4998490;28;20153;-71
2022/11/06 00:18:32;;;;;;;2.90;1.48;;;;;;;11.25;82.77;100774.66;5001643;28;20407;-71
2022/11/06 00:20:57;;;;;;;2.92;1.52;;;;;;;11.32;82.40;100771.31;4999146;28;20026;-71
2022/11/06 00:23:22;;;;;;;3.90;1.90;;;;;;;11.33;82.15;100764.78;4999052;28;20038;-71
2022/11/06 00:25:51;;;;;;;2.35;1.48;;;;;;;11.43;82.04;100761.50;5002148;28;20038;-71
2022/11/06 00:28:18;;;;;;;2.40;1.40;;;;;;;11.40;81.86;100757.59;5003893;28;20041;-71
2022/11/06 00:30:43;;;;;;;5.22;1.80;;;;;;;11.38;82.20;100770.66;4997200;28;20153;-71
2022/11/06 00:33:09;;;;;;;2.83;1.58;;;;;;;11.19;82.75;100767.22;4996493;28;20128;-70
2022/11/06 00:35:38;;;;;;;2.28;1.65;;;;;;;11.27;82.11;100774.28;4998322;28;20066;-71
2022/11/06 00:38:04;;;;;;;5.07;2.00;;;;;;;11.42;81.72;100765.34;5005530;28;20521;-70
2022/11/06 00:40:29;;;;;;;2.33;1.50;;;;;;;11.10;82.60;100770.13;4998666;28;20483;-71
2022/11/06 00:42:55;;;;;;;3.33;1.23;;;;;;;11.20;82.96;100763.38;5008749;28;20036;-70
2022/11/06 00:45:21;;;;;;;3.75;1.35;;;;;;;11.06;83.27;100771.97;4996116;28;20084;-70
2022/11/06 00:47:46;;;;;;;2.65;1.60;;;;;;;10.91;83.86;100759.34;5005447;28;20065;-71
2022/11/06 00:50:11;;;;;;;2.33;1.50;;;;;;;11.13;83.60;100758.63;5006138;28;20032;-71
2022/11/06 00:52:37;;;;;;;3.85;1.30;;;;;;;11.22;83.20;100755.72;4997259;28;20542;-70
2022/11/06 00:55:02;;;;;;;3.40;1.63;;;;;;;11.40;82.13;100759.53;5001237;28;20045;-71
2022/11/06 00:57:28;;;;;;;1.35;1.02;;;;;;;11.35;82.23;100749.81;4999146;28;20037;-71
2022/11/06 00:59:53;;;;;;;2.42;0.93;;;;;;;11.43;81.72;100761.50;5002372;28;20108;-70
2022/11/06 01:02:19;;;;;;;1.90;1.10;;;;;;;11.25;82.57;100752.28;5007161;28;20479;-71
2022/11/06 01:04:45;;;;;;;2.50;1.48;;;;;;;11.30;82.41;100762.81;5003491;28;20041;-71
2022/11/06 01:07:11;;;;;;;2.65;1.25;;;;;;;11.44;82.32;100757.69;5004693;28;20120;-71
2022/11/06 01:09:37;;;;;;;4.78;1.42;;;;;;;10.97;82.91;100754.44;5004027;28;20022;-70
2022/11/06 01:12:03;;;;;;;2.55;0.93;;;;;;;11.12;83.49;100756.28;5004093;28;20067;-71
2022/11/06 01:14:29;;;;;;;2.00;1.20;;;;;;;11.11;83.52;100757.44;5004887;28;20041;-70
2022/11/06 01:16:55;;;;;;;2.28;1.13;;;;;;;11.20;82.97;100752.59;5006616;28;20362;-71
2022/11/06 01:19:21;;;;;;;1.67;1.17;;;;;;;11.33;82.53;100752.09;5008507;28;20062;-71
2022/11/06 01:21:51;;;;;;;3.63;1.30;;;;;;;11.33;83.30;100748.59;5009739;28;20034;-71
2022/11/06 01:24:22;;;;;;;3.85;1.50;;;;;;;11.21;83.27;100754.16;5010634;28;20038;-70
2022/11/06 01:26:48;;;;;;;;;;;;;;;11.17;83.47;100745.22;5011277;28;20038;-70
2022/11/06 01:29:16;;;;;;;1.70;1.10;;;;;;;11.26;82.80;100740.38;5011904;28;20443;-71
2022/11/06 01:31:42;;;;;;;5.30;1.15;;;;;;;11.26;82.62;100732.31;5012061;28;20025;-71
2022/11/06 01:34:07;;;;;;;1.67;1.17;;;;;;;11.15;83.09;100736.72;5021849;28;20506;-71
2022/11/06 01:36:33;;;;;;;3.13;1.70;;;;;;;11.22;82.73;100731.47;5008447;28;20229;-70
2022/11/06 01:39:01;;;;;;;2.47;1.60;;;;;;;11.06;83.07;100730.75;5010896;28;20057;-70
2022/11/06 01:41:39;;;;;;;2.25;1.27;;;;;;;11.11;82.92;100727.78;5005855;28;20056;-71
2022/11/06 01:44:26;;;;;;;2.08;1.42;;;;;;;11.20;83.07;100728.34;5009407;28;20044;-70
2022/11/06 01:46:51;;;;;;;2.22;1.45;;;;;;;11.32;83.24;100739.75;5008883;28;20407;-70
2022/11/06 01:49:17;;;;;;;2.50;1.10;;;;;;;11.28;83.08;100732.72;5011753;28;20038;-70
2022/11/06 01:52:09;;;;;;;2.53;1.55;;;;;;;11.23;83.01;100712.22;5011239;28;20085;-72
2022/11/06 01:54:38;;;;;;;4.25;1.35;;;;;;;11.26;82.98;100721.53;5004024;28;20054;-71
2022/11/06 01:57:04;;;;;;;1.70;1.10;;;;;;;11.14;83.13;100700.13;5012113;28;20042;-71
2022/11/06 01:59:33;;;;;;;2.33;1.40;;;;;;;11.21;83.11;100705.63;5006850;28;20026;-71
2022/11/06 02:01:58;;;;;;;1.40;1.30;;;;;;;11.11;83.18;100703.53;5011995;28;20041;-71
2022/11/06 02:04:30;;;;;;;1.45;1.27;;;;;;;11.25;83.36;100701.06;5005244;28;20642;-70
2022/11/06 02:06:58;;;;;;;2.45;1.80;;;;;;;11.28;83.37;100687.69;5003436;28;20098;-70
2022/11/06 02:09:24;;;;;;;3.38;1.60;;;;;;;11.12;83.17;100694.28;5011099;28;20037;-70
2022/11/06 02:11:56;;;;;;;2.38;1.33;;;;;;;11.24;82.80;100689.53;5013029;28;20399;-70
2022/11/06 02:14:47;;;;;;;4.60;1.63;;;;;;;11.11;83.26;100695.44;4999648;28;20128;-70
2022/11/06 02:18:03;;;;;;;1.75;1.20;;;;;;;10.96;84.39;100685.50;5005908;28;20596;-71
2022/11/06 02:20:45;;;;;;;7.82;1.55;;;;;;;11.13;83.92;100698.56;4985297;28;20539;-71
2022/11/06 02:23:29;;;;;;;2.08;1.42;;;;;;;11.26;84.11;100695.34;5012458;28;20069;-70
2022/11/06 02:26:07;;;;;;;2.10;1.60;;;;;;;11.20;83.55;100686.00;5010017;28;20248;-70
2022/11/06 02:29:04;;;;;;;4.70;1.88;;;;;;;11.10;84.13;100673.09;4997503;28;20487;-70
2022/11/06 02:31:34;;;;;;;3.58;1.40;;;;;;;11.29;83.54;100673.06;4984658;28;20509;-71
2022/11/06 02:34:11;;;;;;;2.15;1.38;;;;;;;11.25;83.76;100674.91;5009208;28;20141;-71
2022/11/06 02:36:49;;;;;;;3.00;1.73;;;;;;;11.33;84.04;100667.72;5013012;28;20091;-69
2022/11/06 02:39:19;;;;;;;2.28;1.27;;;;;;;11.35;83.04;100668.16;5011146;28;20529;-70
2022/11/06 02:41:46;;;;;;;3.58;1.20;;;;;;;11.34;83.66;100656.56;5012750;28;20088;-70
2022/11/06 02:44:18;;;;;;;1.77;1.15;;;;;;;11.29;83.25;100656.09;5012159;28;20033;-71
2022/11/06 02:46:57;;;;;;;2.33;1.58;;;;;;;11.32;83.46;100658.88;5000400;28;20030;-72
2022/11/06 02:49:28;;;;;;;3.90;1.10;;;;;;;11.38;83.38;100652.03;5008784;28;20065;-71
2022/11/06 02:51:58;;;;;;;5.72;1.45;;;;;;;11.53;82.43;100653.06;5011087;28;20038;-70
2022/11/06 02:54:27;;;;;;;1.58;1.40;;;;;;;11.37;83.23;100655.09;5012048;28;20509;-71
2022/11/06 02:56:56;;;;;;;2.85;1.77;;;;;;;11.29;84.20;100653.41;5011117;28;20029;-71
2022/11/06 02:59:31;;;;;;;1.90;1.13;;;;;;;11.12;84.78;100638.50;5008973;28;20506;-72
2022/11/06 03:02:01;;;;;;;3.05;1.40;;;;;;;11.06;84.89;100644.53;5008597;28;20032;-72
2022/11/06 03:04:35;;;;;;;1.63;1.38;;;;;;;10.82;86.97;100646.41;5011120;28;20048;-72
2022/11/06 03:07:20;;;;;;;1.38;1.05;;;;;;;11.06;86.16;100641.81;5007825;28;20513;-72
2022/11/06 03:09:47;;;;;;;2.47;1.50;;;;;;;11.37;85.35;100636.22;5002624;28;20380;-72
2022/11/06 03:12:30;;;;;;;3.95;1.40;;;;;;;11.13;85.23;100641.97;5003367;28;20076;-72
2022/11/06 03:17:42;;;;;;;2.53;1.10;;;;;;;11.22;84.36;100627.13;5025369;28;20081;-66
2022/11/06 03:20:22;;;;;;;2.63;1.23;;;;;;;11.30;84.54;100617.22;5031145;28;20065;-66
2022/11/06 03:22:56;;;;;;;4.47;1.90;;;;;;;11.38;84.21;100618.91;5030652;28;20037;-66
2022/11/06 03:25:24;;;;;;;0.98;0.80;;;;;;;11.52;83.26;100613.72;5030743;28;20079;-66
2022/11/06 03:27:55;;;;;;;2.10;1.40;;;;;;;11.54;83.88;100624.94;5030614;28;20029;-68
2022/11/06 03:30:21;;;;;;;;;;;;;;;11.49;83.70;100625.25;5031684;28;20063;-66
2022/11/06 03:32:59;;;;;;;1.10;1.00;;;;;;;11.54;83.77;100624.94;5029852;28;19952;-67
2022/11/06 03:35:36;;;;;;;2.83;1.52;;;;;;;11.11;85.96;100628.06;5030374;28;20684;-66
2022/11/06 03:38:11;;;;;;;1.48;1.20;;;;;;;11.35;85.51;100611.53;5021967;28;20061;-66
2022/11/06 03:40:43;;;;;;;2.38;1.67;;;;;;;11.38;85.31;100624.31;5030145;28;20061;-66
2022/11/06 03:43:11;;;;;;;1.88;1.17;;;;;;;11.28;84.85;100631.06;5029714;28;20040;-66
2022/11/06 03:45:39;;;;;;;2.40;1.23;;;;;;;11.39;85.43;100631.25;5020731;28;20041;-66
2022/11/06 03:48:20;;;;;;;5.80;1.75;;;;;;;11.33;85.13;100633.47;5031248;28;20103;-66
2022/11/06 03:50:46;;;;;;;;;;;;;;;11.21;85.43;100619.38;5031610;28;20037;-66
2022/11/06 03:53:22;;;;;;;1.73;1.10;;;;;;;11.56;84.53;100623.44;5029583;28;20285;-66
2022/11/06 03:55:52;;;;;;;2.78;1.30;;;;;;;11.59;84.17;100609.22;5029835;28;20041;-66
2022/11/06 03:58:27;;;;;;;3.30;1.45;;;;;;;11.61;83.93;100611.56;5030012;28;20095;-66
2022/11/06 04:00:55;;;;;;;2.03;1.13;;;;;;;11.79;82.73;100610.72;5030931;28;20428;-66
2022/11/06 04:03:44;;;;;;;5.50;1.50;;;;;;;11.65;83.44;100604.31;5029580;28;20433;-66
2022/11/06 04:06:17;;;;;;;2.60;1.30;;;;;;;11.46;83.69;100609.78;5015047;28;20375;-66
2022/11/06 04:14:21;;;;;;;1.63;1.02;;;;;;;11.39;84.21;100606.97;5028897;28;20037;-66
2022/11/06 04:16:50;;;;;;;6.72;1.52;;;;;;;11.34;84.38;100601.91;5024310;28;20446;-66
2022/11/06 04:19:21;;;;;;;2.78;0.90;;;;;;;11.31;84.14;100603.38;5030114;28;20069;-66
2022/11/06 04:22:02;;;;;;;2.08;1.45;;;;;;;11.25;84.58;100614.81;5030336;28;20125;-66
2022/11/06 04:28:27;;;;;;;7.55;1.48;;;;;;;11.05;85.39;100599.84;5021468;28;20025;-66
2022/11/06 04:31:49;;;;;;;6.40;1.73;;;;;;;11.14;84.81;100611.97;5021289;28;20048;-65
2022/11/06 04:34:25;;;;;;;1.63;1.13;;;;;;;11.35;84.68;100615.00;5002076;28;20134;-66
2022/11/06 04:36:58;;;;;;;2.83;1.30;;;;;;;11.48;84.88;100610.97;4997717;28;20113;-66
2022/11/06 04:39:54;;;;;;;1.25;1.00;;;;;;;11.48;87.63;100604.78;4990259;28;20054;-66
2022/11/06 04:42:33;;;;;;;6.03;1.30;;;;;;;11.33;88.32;100605.72;4991606;28;20511;-66
2022/11/06 04:45:05;;;;;;;1.95;1.15;;;;;;;11.23;90.46;100600.91;5005866;28;20124;-66
2022/11/06 04:47:31;;;;;;;4.32;1.23;;;;;;;11.09;91.10;100598.00;4998149;28;20038;-66
2022/11/06 04:50:00;;;;;;;3.22;1.27;;;;;;;11.07;91.21;100589.50;4994964;28;20113;-66
2022/11/06 04:52:27;;;;;;;2.42;1.13;;;;;;;11.06;91.83;100590.63;5006555;28;20053;-66
2022/11/06 04:54:54;;;;;;;1.23;1.10;;;;;;;11.14;91.47;100601.19;4982785;28;20072;-66
2022/11/06 04:57:22;;;;;;;1.80;1.15;;;;;;;11.11;92.33;100593.03;4998453;28;20518;-66
2022/11/06 04:59:47;;;;;;;4.57;1.90;;;;;;;11.11;92.55;100598.44;4997505;28;20485;-66
2022/11/06 05:02:13;;;;;;;2.97;1.13;;;;;;;11.27;91.79;100593.66;5003692;28;20153;-66
2022/11/06 05:04:38;;;;;;;2.25;1.63;;;;;;;11.16;91.72;100590.81;5007186;28;20132;-65
2022/11/06 05:07:04;;;;;;;3.28;1.42;;;;;;;11.22;91.18;100599.38;5030006;28;20041;-66
2022/11/06 05:09:29;;;;;;;3.15;2.25;;;;;;;11.06;91.69;100582.53;5030004;28;20021;-66
2022/11/06 05:11:55;;;;;;;2.30;1.50;;;;;;;11.12;91.25;100583.81;5028443;28;20508;-65
2022/11/06 05:14:20;;;;;;;1.80;1.40;;;;;;;11.24;91.47;100583.63;5023064;28;20636;-66
2022/11/06 05:16:46;;;;;;;3.90;1.42;;;;;;;11.36;91.02;100592.28;5023931;28;20037;-66
2022/11/06 05:19:11;;;;;;;2.05;1.50;;;;;;;11.21;90.27;100582.41;5027859;28;20057;-66
2022/11/06 05:24:20;;;;;;;3.25;1.33;;;;;;;10.90;91.75;100577.25;5024971;28;20535;-66
2022/11/06 05:26:46;;;;;;;8.35;2.50;;;;;;;11.11;91.54;100582.25;5026750;28;20043;-66
2022/11/06 05:29:12;;;;;;;5.47;2.15;;;;;;;11.25;90.61;100574.38;5017932;28;20029;-64
2022/11/06 05:31:37;;;;;;;1.70;1.30;;;;;;;11.31;90.33;100578.34;5028827;28;20033;-64
2022/11/06 05:34:03;;;;;;;2.50;1.05;;;;;;;11.27;90.36;100574.81;5026446;28;20107;-64
2022/11/06 05:36:28;;;;;;;2.38;1.67;;;;;;;11.42;89.76;100573.91;5029264;28;20073;-64
2022/11/06 05:38:53;;;;;;;1.15;1.05;;;;;;;11.42;89.34;100585.44;5030227;28;20437;-64
2022/11/06 05:41:19;;;;;;;3.25;1.00;;;;;;;11.47;88.55;100584.38;5029030;28;20040;-63
2022/11/06 05:43:44;;;;;;;3.35;1.30;;;;;;;11.40;88.98;100587.72;5029446;28;20596;-64
2022/11/06 05:46:10;;;;;;;4.75;1.48;;;;;;;11.33;89.10;100592.22;5028499;28;20041;-63
2022/11/06 05:48:35;;;;;;;1.60;1.50;;;;;;;11.41;89.62;100585.81;5029665;28;20036;-64
2022/11/06 05:51:03;;;;;;;2.42;1.05;;;;;;;11.37;88.09;100584.97;5029915;28;20052;-64
2022/11/06 05:53:30;;;;;;;2.53;1.63;;;;;;;11.42;88.38;100587.38;5029165;28;20044;-64
2022/11/06 05:55:55;;;;;;;1.42;1.10;;;;;;;11.30;88.98;100579.50;5025071;28;20048;-64
2022/11/06 05:58:21;;;;;;;2.22;1.30;;;;;;;11.39;88.56;100586.19;5029573;28;20033;-64
2022/11/06 06:00:46;;;;;;;2.65;1.35;;;;;;;11.48;88.63;100578.63;5026010;28;20026;-64
2022/11/06 06:03:12;;;;;;;2.25;1.55;;;;;;;11.59;87.47;100586.88;5026155;28;20530;-64
2022/11/06 06:05:37;;;;;;;1.75;1.35;;;;;;;11.63;87.25;100577.69;5028901;28;20038;-64
2022/11/06 06:08:04;;;;;;;2.20;1.30;;;;;;;11.63;86.88;100585.78;5028493;28;20401;-64
2022/11/06 06:10:29;;;;;;;2.50;1.25;;;;;;;11.60;86.56;100581.13;5031577;28;20037;-64
2022/11/06 06:12:54;;;;;;;2.20;1.20;;;;;;;11.54;86.93;100590.66;5032204;28;20037;-64
2022/11/06 06:15:23;;;;;;;1.05;0.90;;;;;;;11.61;86.26;100585.34;5028567;28;20081;-64
2022/11/06 06:17:48;;;;;;;3.10;1.38;;;;;;;11.63;86.59;100593.09;5018300;28;20029;-65
2022/11/06 06:20:14;;;;;;;7.03;1.52;;;;;;;11.80;85.29;100592.63;5032540;28;20029;-64
2022/11/06 06:22:39;;;;;;;2.03;1.20;;;;;;;11.63;86.67;100582.31;5032530;28;20037;-63
2022/11/06 06:25:06;;;;;;;2.75;1.30;;;;;;;11.53;86.05;100588.31;5032385;28;20082;-64
2022/11/06 06:27:32;;;;;;;1.85;1.13;;;;;;;11.53;86.39;100589.13;5007980;28;20045;-63
2022/11/06 06:29:57;;;;;;;1.73;1.20;;;;;;;11.65;85.67;100588.13;5029989;28;20029;-64
2022/11/06 06:32:22;;;;;;;1.67;0.88;;;;;;;11.61;85.79;100590.00;5020890;28;20037;-64
2022/11/06 06:34:48;;;;;;;2.13;0.95;;;;;;;11.61;86.94;100595.38;5031844;28;20164;-64
2022/11/06 06:37:13;;;;;;;4.07;1.02;;;;;;;11.74;86.22;100591.38;5031135;28;20041;-64
2022/11/06 06:39:39;;;;;;;1.83;1.23;;;;;;;11.40;86.17;100586.97;5031197;28;20028;-64
2022/11/06 06:42:04;;;;;;;1.63;1.20;;;;;;;11.38;86.29;100578.47;5030393;28;20389;-64
2022/11/06 06:44:30;;;;;;;1.27;0.80;;;;;;;11.49;86.73;100585.59;5017854;28;20041;-64
2022/11/06 06:46:55;;;;;;;1.65;1.02;;;;;;;11.52;86.65;100590.25;5032227;28;20045;-64
2022/11/06 06:49:21;;;;;;;3.08;0.98;;;;;;;11.37;87.01;100593.06;5032326;28;20033;-64
2022/11/06 06:51:47;;;;;;;0.93;0.88;;;;;;;11.54;86.50;100592.56;5032295;28;20497;-64
2022/11/06 06:54:13;;;;;;;1.15;0.93;;;;;;;11.72;86.51;100585.56;5024406;28;20034;-64
2022/11/06 06:56:38;;;;;;;1.77;0.98;;;;;;;11.63;86.00;100585.78;5027032;28;20060;-64
2022/11/06 06:59:07;;;;;;;2.35;1.23;;;;;;;11.73;85.78;100584.41;5029493;28;20041;-64
2022/11/06 07:01:33;;;;;;;1.17;0.93;;;;;;;11.75;85.37;100579.41;5024145;28;20033;-64
2022/11/06 07:03:58;;;;;;;3.60;0.98;;;;;;;11.65;85.46;100577.34;5030910;28;20840;-64
2022/11/06 07:06:24;;;;;;;3.83;1.08;;;;;;;11.60;84.71;100583.03;5016276;28;20042;-64
2022/11/06 07:08:54;;;;;;;1.50;0.98;;;;;;;11.60;85.29;100593.81;5029433;28;20108;-64
2022/11/06 07:11:20;;;;;;;1.85;1.10;;;;;;;11.63;86.06;100590.41;5031678;28;20683;-64
2022/11/06 07:13:46;;;;;;;2.70;1.02;;;;;;;11.59;85.00;100576.84;5031850;28;20489;-64
2022/11/06 07:16:11;;;;;;;1.77;1.30;;;;;;;11.68;86.03;100592.81;5027972;28;20048;-65
2022/11/06 07:18:38;;;;;;;1.23;0.88;;;;;;;11.69;85.83;100583.59;5030102;28;20079;-64
2022/11/06 07:21:05;;;;;;;2.53;1.42;;;;;;;11.64;85.33;100587.34;5031719;28;20043;-64
2022/11/06 07:23:31;;;;;;;2.92;1.15;;;;;;;11.68;84.39;100584.72;5022306;28;20026;-64
2022/11/06 07:25:56;;;;;;;3.70;1.67;;;;;;;11.72;84.59;100582.84;5024122;28;20082;-65
2022/11/06 07:28:22;;;;;;;1.20;1.05;;;;;;;11.72;85.51;100596.34;5012520;28;20117;-64
2022/11/06 07:30:47;;;;;;;1.23;1.00;;;;;;;11.71;85.28;100584.78;5025147;28;20040;-65
2022/11/06 07:33:13;;;;;;;3.15;1.25;;;;;;;11.50;85.76;100591.72;5029130;28;20045;-64
2022/11/06 07:35:38;;;;;;;2.08;1.42;;;;;;;11.67;85.94;100602.81;5030421;28;20045;-64
2022/11/06 07:38:05;;;;;;;6.32;1.15;;;;;;;11.89;84.48;100590.41;5030390;28;20033;-64
2022/11/06 07:40:37;;;;;;;3.45;1.80;;;;;;;11.98;84.10;100606.34;5026516;28;20021;-65
2022/11/06 07:43:07;;;;;;;3.42;1.45;;;;;;;12.05;83.66;100603.75;5023994;28;20025;-64
2022/11/06 07:45:33;;;;;;;1.63;1.02;;;;;;;11.95;84.62;100596.28;5026047;28;20092;-65
2022/11/06 07:47:59;;;;;;;2.42;1.10;;;;;;;11.96;84.80;100606.72;5014292;28;20060;-65
2022/11/06 07:50:26;;;;;;;3.78;1.30;;;;;;;12.08;84.56;100603.03;5030209;28;20064;-65
2022/11/06 07:52:51;;;;;;;3.60;1.10;;;;;;;12.20;84.20;100598.16;5031695;28;20036;-65
2022/11/06 07:55:17;;;;;;;2.05;1.40;;;;;;;12.27;84.22;100595.53;5021433;28;20037;-65
2022/11/06 07:57:42;;;;;;;1.77;0.95;;;;;;;12.35;82.69;100605.28;5030652;28;20110;-66
2022/11/06 08:00:08;;;;;;;2.00;0.80;;;;;;;12.05;82.26;100595.66;5019066;28;20529;-65
2022/11/06 08:02:41;;;;;;;1.23;1.13;;;;;;;11.71;84.01;100600.94;5020489;28;20074;-64
2022/11/06 08:05:07;;;;;;;2.78;1.02;;;;;;;11.74;84.03;100589.47;5029432;28;20029;-65
2022/11/06 08:07:32;;;;;;;1.70;1.10;;;;;;;11.85;83.89;100594.97;5027232;28;20116;-65
2022/11/06 08:09:58;;;;;;;1.17;0.95;;;;;;;11.96;83.67;100587.84;5030665;28;20518;-65
2022/11/06 08:12:23;;;;;;;1.38;1.08;;;;;;;11.98;83.05;100601.72;5031267;28;20112;-64
2022/11/06 08:14:51;;;;;;;1.83;1.15;;;;;;;11.96;83.62;100595.94;5026810;28;20075;-64
2022/11/06 08:17:17;;;;;;;3.05;1.50;;;;;;;12.21;82.26;100588.94;5028908;28;20037;-65
2022/11/06 08:19:42;;;;;;;1.58;1.13;;;;;;;12.30;82.08;100594.03;5029942;28;21054;-65
2022/11/06 08:22:08;;;;;;;2.08;0.95;;;;;;;12.33;81.96;100588.66;5030410;28;20032;-64
2022/11/06 08:24:33;;;;;;;3.10;1.05;;;;;;;12.18;82.61;100591.56;5028413;28;20036;-65
2022/11/06 08:26:59;;;;;;;1.05;0.90;;;;;;;12.14;84.05;100580.72;5022287;28;20049;-65
2022/11/06 08:29:24;;;;;;;2.45;0.90;;;;;;;12.22;83.01;100570.78;5023537;28;20037;-65
2022/11/06 08:31:50;;;;;;;2.22;1.10;;;;;;;12.18;82.87;100573.44;5013882;28;20056;-65
2022/11/06 08:34:15;;;;;;;1.25;1.00;;;;;;;12.09;83.71;100574.88;5027473;28;20410;-64
2022/11/06 08:36:44;;;;;;;1.63;1.02;;;;;;;12.10;83.72;100569.09;5029515;28;20037;-65
2022/11/06 08:39:10;;;;;;;2.63;1.15;;;;;;;12.25;83.38;100578.19;5029938;28;20034;-65
2022/11/06 08:41:37;;;;;;;2.13;1.02;;;;;;;12.03;82.96;100576.34;5026727;28;20063;-65
2022/11/06 08:44:03;;;;;;;4.00;0.82;;;;;;;12.37;82.51;100575.22;5025496;28;20073;-65
2022/11/06 08:46:28;;;;;;;1.55;1.05;;;;;;;12.28;82.63;100574.72;5026878;28;20069;-65
2022/11/06 08:48:54;;;;;;;3.80;1.15;;;;;;;12.39;82.09;100554.81;5030149;28;20038;-65
2022/11/06 08:51:19;;;;;;;2.88;1.27;;;;;;;12.57;82.26;100563.09;5020849;28;20040;-65
2022/11/06 08:53:45;;;;;;;1.23;0.85;;;;;;;12.58;80.64;100559.25;5023560;28;20040;-66
2022/11/06 08:56:10;;;;;;;2.50;0.90;;;;;;;12.47;81.74;100552.94;5010100;28;20498;-65
2022/11/06 08:58:35;;;;;;;1.10;0.65;;;;;;;12.61;80.72;100548.50;5029214;28;20048;-65
2022/11/06 09:01:01;;;;;;;1.33;1.02;;;;;;;12.61;80.01;100545.78;5024906;28;20038;-65
2022/11/06 09:03:26;;;;;;;1.40;0.80;;;;;;;12.54;81.15;100563.84;5016320;28;20455;-66
2022/11/06 09:05:51;;;;;;;1.10;1.00;;;;;;;12.74;81.48;100553.63;5010101;28;20494;-65
2022/11/06 09:08:17;;;;;;;1.65;0.77;;;;;;;12.84;79.76;100558.34;5009727;28;20068;-65
2022/11/06 09:10:43;;;;;;;1.80;0.85;;;;;;;12.77;80.19;100542.06;5021799;28;20390;-65
2022/11/06 09:15:38;;;;;;;2.78;1.08;;;;;;;12.88;79.88;100538.31;5024785;22;20054;-71
2022/11/06 09:18:03;;;;;;;2.35;1.23;;;;;;;12.93;79.55;100531.81;5003181;28;20113;-71
2022/11/06 09:20:28;;;;;;;1.95;1.10;;;;;;;12.95;80.13;100543.03;4971450;28;20070;-71
2022/11/06 09:22:59;;;;;;;1.05;0.80;;;;;;;12.78;80.90;100547.09;4971660;28;20043;-70
2022/11/06 09:25:25;;;;;;;1.60;0.80;;;;;;;12.60;80.59;100536.13;4986027;28;20038;-70
2022/11/06 09:27:52;;;;;;;1.95;1.00;;;;;;;12.64;81.34;100542.34;4986665;28;20076;-71
2022/11/06 09:30:19;;;;;;;1.45;1.13;;;;;;;12.84;80.73;100542.91;4970258;28;20157;-71
2022/11/06 09:33:07;;;;;;;1.30;0.77;;;;;;;12.90;80.89;100554.16;4970824;28;20026;-71
2022/11/06 09:35:33;;;;;;;1.17;1.00;;;;;;;13.02;79.67;100553.88;4970784;28;20050;-71
2022/11/06 09:38:04;;;;;;;2.03;1.00;;;;;;;13.07;79.74;100550.84;4985942;28;20030;-71
2022/11/06 09:40:49;;;;;;;0.93;0.80;;;;;;;13.13;79.82;100557.47;4981768;28;20034;-70
2022/11/06 09:43:30;;;;;;;5.22;0.88;;;;;;;13.08;79.18;100553.22;4990429;28;20057;-70
2022/11/06 09:46:05;;;;;;;3.38;1.23;;;;;;;13.15;79.44;100545.16;4994055;28;20034;-71
2022/11/06 09:48:42;;;;;;;2.70;1.08;;;;;;;13.23;80.09;100546.75;4989753;28;20546;-71
2022/11/06 09:51:26;;;;;;;2.17;1.10;;;;;;;13.19;79.35;100559.47;4989935;28;20039;-71
2022/11/06 09:54:02;;;;;;;2.47;1.17;;;;;;;13.05;79.79;100548.53;4987662;28;20061;-71
2022/11/06 09:56:37;;;;;;;4.78;0.93;;;;;;;12.89;80.90;100541.81;4990587;28;20069;-71
2022/11/06 09:59:07;;;;;;;1.52;0.73;;;;;;;13.16;80.41;100548.63;4993888;28;20038;-71
2022/11/06 10:01:40;;;;;;;3.13;1.17;;;;;;;13.24;79.89;100555.66;4989542;28;20072;-71
2022/11/06 10:04:19;;;;;;;3.00;0.88;;;;;;;13.11;79.92;100551.66;4990651;28;20026;-71
2022/11/06 10:06:45;;;;;;;0.98;0.70;;;;;;;13.22;79.87;100552.56;4994584;28;20506;-71
2022/11/06 10:09:11;;;;;;;1.35;0.90;;;;;;;13.37;79.58;100548.78;4994297;28;20034;-71
2022/11/06 10:12:07;;;;;;;0.70;0.70;;;;;;;13.52;79.48;100539.63;4977389;28;20499;-71
2022/11/06 10:14:59;;;;;;;1.60;0.90;;;;;;;13.24;80.20;100537.47;4995915;28;20038;-71
2022/11/06 10:17:43;;;;;;;1.77;1.10;;;;;;;13.46;79.29;100524.88;4993169;28;20045;-71
2022/11/06 10:20:22;;;;;;;3.60;1.25;;;;;;;13.49;80.14;100541.13;4993544;28;20494;-71
2022/11/06 10:23:04;;;;;;;7.57;2.05;;;;;;;13.71;80.05;100542.03;4992166;28;20100;-71
2022/11/06 10:25:41;;;;;;;4.82;2.22;;;;;;;13.84;79.37;100547.94;4989414;28;20038;-71
2022/11/06 10:28:34;;;;;;;1.67;1.20;;;;;;;13.80;77.98;100534.34;4993779;28;20069;-71
2022/11/06 10:31:29;;;;;;;2.80;1.10;;;;;;;13.85;78.50;100531.31;4984735;28;20026;-71
2022/11/06 10:34:01;;;;;;;3.88;1.45;;;;;;;13.97;78.15;100527.50;4982007;28;20462;-71
2022/11/06 10:36:29;;;;;;;2.42;1.45;;;;;;;13.76;77.90;100533.59;4986756;28;20042;-71
2022/11/06 10:38:57;;;;;;;3.22;1.58;;;;;;;13.98;77.66;100520.91;4988028;28;20049;-71
2022/11/06 10:41:32;;;;;;;1.95;1.30;;;;;;;13.80;78.38;100512.69;4987420;28;20125;-71
2022/11/06 10:44:03;;;;;;;2.42;0.98;;;;;;;13.68;78.92;100507.63;4984234;28;20034;-71
2022/11/06 10:46:39;;;;;;;1.25;0.68;;;;;;;13.99;78.36;100503.53;4982247;28;20395;-71
2022/11/06 10:49:14;;;;;;;0.70;0.70;;;;;;;14.13;77.65;100519.81;4989263;28;20387;-71
2022/11/06 10:51:54;;;;;;;2.08;1.23;;;;;;;14.20;77.63;100509.00;4992837;28;20403;-71
2022/11/06 10:54:41;;;;;;;1.25;0.70;;;;;;;14.15;77.46;100506.69;4989436;28;20046;-71
2022/11/06 10:57:10;;;;;;;1.50;0.65;;;;;;;14.08;77.69;100501.22;4992211;28;20509;-71
2022/11/06 10:59:35;;;;;;;1.08;0.73;;;;;;;14.15;78.01;100506.69;4992895;28;20133;-71
2022/11/06 11:02:01;;;;;;;3.47;0.88;;;;;;;14.26;77.92;100507.47;4989030;28;20591;-71
2022/11/06 11:04:29;;;;;;;1.48;0.60;;;;;;;14.48;77.50;100507.16;4987413;28;20026;-71
2022/11/06 11:06:54;;;;;;;7.63;1.20;;;;;;;14.27;77.30;100507.13;4992739;28;20438;-71
2022/11/06 11:09:32;;;;;;;0.70;0.68;;;;;;;14.38;77.34;100499.03;4991597;28;20038;-71
2022/11/06 11:11:59;;;;;;;2.22;0.70;;;;;;;14.51;77.94;100489.38;4996904;28;20031;-71
2022/11/06 11:14:27;;;;;;;1.77;0.63;;;;;;;14.68;76.50;100471.56;4989405;28;20083;-71
2022/11/06 11:16:53;;;;;;;1.48;0.65;;;;;;;14.77;76.00;100466.56;4991547;28;20117;-71
2022/11/06 11:19:40;;;;;;;1.88;0.60;;;;;;;14.88;76.13;100453.78;4992564;28;20038;-71
2022/11/06 11:22:15;;;;;;;0.85;0.60;;;;;;;15.14;76.15;100448.69;4990973;28;20081;-71
2022/11/06 11:25:04;;;;;;;2.25;0.60;;;;;;;15.22;76.22;100444.81;4989785;28;20053;-71
2022/11/06 11:27:35;;;;;;;0.98;0.57;;;;;;;15.08;74.96;100433.97;4990399;28;20095;-72
2022/11/06 11:30:04;;;;;;;1.33;0.63;;;;;;;15.11;76.23;100449.50;4991125;28;20026;-71
2022/11/06 11:32:30;;;;;;;4.40;0.90;;;;;;;15.21;75.94;100454.09;4990972;28;20386;-71
2022/11/06 11:34:57;;;;;;;0.57;0.57;;;;;;;15.35;75.00;100443.22;4988677;28;20042;-71
2022/11/06 11:37:31;;;;;;;0.75;0.63;;;;;;;15.48;75.02;100456.41;4982232;28;20034;-71
2022/11/06 11:40:34;;;;;;;1.48;0.63;;;;;;;15.50;74.84;100448.66;4984735;28;20042;-71
2022/11/06 11:43:18;;;;;;;0.55;0.50;;;;;;;15.26;74.30;100434.72;4986629;28;20062;-71
2022/11/06 11:46:01;;;;;;;1.38;0.63;;;;;;;14.94;74.91;100444.84;4986726;28;20089;-71
2022/11/06 11:48:26;;;;;;;3.03;0.60;;;;;;;15.10;74.62;100445.22;4987766;28;20550;-71
2022/11/06 11:50:52;;;;;;;2.92;0.88;;;;;;;15.06;75.25;100440.97;4972791;28;20026;-71
2022/11/06 11:53:21;;;;;;;0.80;0.57;;;;;;;15.23;74.62;100437.44;4988351;28;20721;-71
2022/11/06 11:55:49;;;;;;;3.58;0.60;;;;;;;15.32;74.39;100432.38;4983253;28;20034;-71
2022/11/06 11:58:26;;;;;;;1.05;0.60;;;;;;;15.09;75.48;100435.53;4989217;28;20403;-71
2022/11/06 12:00:58;;;;;;;2.42;0.47;;;;;;;15.11;75.33;100440.56;4987488;28;20117;-71